sensor_id;sensor_type;location;lat;lon;timestamp;pressure;altitude;pressure_sealevel;temperature;humidity
49461;BME280;35355;49.198;-0.368;2022-10-18T00:00:18;101880.00;;;16.67;87.49
49461;BME280;35355;49.198;-0.368;2022-10-18T00:02:43;101876.72;;;16.65;87.79
49461;BME280;35355;49.198;-0.368;2022-10-18T00:05:09;101881.94;;;16.67;87.50
49461;BME280;35355;49.198;-0.368;2022-10-18T00:07:34;101875.84;;;16.65;87.52
49461;BME280;35355;49.198;-0.368;2022-10-18T00:09:59;101874.22;;;16.64;87.56
49461;BME280;35355;49.198;-0.368;2022-10-18T00:12:25;101878.88;;;16.63;87.58
49461;BME280;35355;49.198;-0.368;2022-10-18T00:14:50;101877.25;;;16.62;87.67
49461;BME280;35355;49.198;-0.368;2022-10-18T00:17:16;101875.59;;;16.61;87.58
49461;BME280;35355;49.198;-0.368;2022-10-18T00:19:41;101878.88;;;16.63;87.70
49461;BME280;35355;49.198;-0.368;2022-10-18T00:22:06;101875.59;;;16.61;87.71
49461;BME280;35355;49.198;-0.368;2022-10-18T00:24:32;101877.25;;;16.62;87.69
49461;BME280;35355;49.198;-0.368;2022-10-18T00:26:57;101880.00;;;16.62;87.91
49461;BME280;35355;49.198;-0.368;2022-10-18T00:29:22;101887.16;;;16.63;87.73
49461;BME280;35355;49.198;-0.368;2022-10-18T00:31:48;101889.91;;;16.63;87.94
49461;BME280;35355;49.198;-0.368;2022-10-18T00:34:14;101884.41;;;16.63;87.68
49461;BME280;35355;49.198;-0.368;2022-10-18T00:36:41;101877.25;;;16.62;87.69
49461;BME280;35355;49.198;-0.368;2022-10-18T00:39:09;101875.59;;;16.61;87.65
49461;BME280;35355;49.198;-0.368;2022-10-18T00:41:37;101884.13;;;16.60;87.93
49461;BME280;35355;49.198;-0.368;2022-10-18T00:44:04;101878.34;;;16.61;88.05
49461;BME280;35355;49.198;-0.368;2022-10-18T00:46:34;101878.63;;;16.60;88.01
49461;BME280;35355;49.198;-0.368;2022-10-18T00:49:30;101877.78;;;16.59;87.71
49461;BME280;35355;49.198;-0.368;2022-10-18T00:52:00;101888.53;;;16.56;87.83
49461;BME280;35355;49.198;-0.368;2022-10-18T00:54:27;101886.06;;;16.54;87.64
49461;BME280;35355;49.198;-0.368;2022-10-18T00:56:54;101890.75;;;16.54;87.65
49461;BME280;35355;49.198;-0.368;2022-10-18T00:59:20;101878.34;;;16.51;87.78
49461;BME280;35355;49.198;-0.368;2022-10-18T01:01:46;101882.47;;;16.48;87.63
49461;BME280;35355;49.198;-0.368;2022-10-18T01:04:13;101885.50;;;16.47;87.59
49461;BME280;35355;49.198;-0.368;2022-10-18T01:06:48;101891.00;;;16.42;87.29
49461;BME280;35355;49.198;-0.368;2022-10-18T01:12:46;101881.88;;;16.26;87.13
49461;BME280;35355;49.198;-0.368;2022-10-18T01:18:15;101879.38;;;16.19;87.37
49461;BME280;35355;49.198;-0.368;2022-10-18T01:31:49;101880.75;;;16.06;87.42
49461;BME280;35355;49.198;-0.368;2022-10-18T01:34:18;101883.19;;;16.03;87.35
49461;BME280;35355;49.198;-0.368;2022-10-18T01:36:50;101880.97;;;16.00;86.99
49461;BME280;35355;49.198;-0.368;2022-10-18T01:39:26;101888.44;;;15.99;87.14
49461;BME280;35355;49.198;-0.368;2022-10-18T01:41:54;101883.19;;;15.98;87.32
49461;BME280;35355;49.198;-0.368;2022-10-18T01:44:23;101886.22;;;15.96;87.15
49461;BME280;35355;49.198;-0.368;2022-10-18T01:46:54;101888.38;;;15.94;87.14
49461;BME280;35355;49.198;-0.368;2022-10-18T01:49:21;101894.16;;;15.92;87.25
49461;BME280;35355;49.198;-0.368;2022-10-18T01:51:46;101891.41;;;15.92;87.45
49461;BME280;35355;49.198;-0.368;2022-10-18T01:54:15;101897.19;;;15.91;87.33
49461;BME280;35355;49.198;-0.368;2022-10-18T01:57:07;101887.81;;;15.87;87.01
49461;BME280;35355;49.198;-0.368;2022-10-18T01:59:46;101892.50;;;15.86;87.14
49461;BME280;35355;49.198;-0.368;2022-10-18T02:02:37;101897.19;;;15.86;87.04
49461;BME280;35355;49.198;-0.368;2022-10-18T02:05:17;101890.56;;;15.82;87.10
49461;BME280;35355;49.198;-0.368;2022-10-18T02:08:21;101887.22;;;15.79;87.32
49461;BME280;35355;49.198;-0.368;2022-10-18T02:11:10;101892.44;;;15.76;87.58
49461;BME280;35355;49.198;-0.368;2022-10-18T02:13:47;101894.09;;;15.77;87.40
49461;BME280;35355;49.198;-0.368;2022-10-18T02:16:18;101888.53;;;15.72;87.46
49461;BME280;35355;49.198;-0.368;2022-10-18T02:19:06;101890.75;;;15.70;87.21
49461;BME280;35355;49.198;-0.368;2022-10-18T02:21:33;101883.56;;;15.64;87.48
49461;BME280;35355;49.198;-0.368;2022-10-18T02:24:00;101887.69;;;15.61;87.28
49461;BME280;35355;49.198;-0.368;2022-10-18T02:26:26;101890.97;;;15.58;87.19
49461;BME280;35355;49.198;-0.368;2022-10-18T02:28:53;101884.34;;;15.54;87.16
49461;BME280;35355;49.198;-0.368;2022-10-18T02:31:30;101887.91;;;15.49;87.08
49461;BME280;35355;49.198;-0.368;2022-10-18T02:34:06;101887.28;;;15.42;86.59
49461;BME280;35355;49.198;-0.368;2022-10-18T02:39:05;101882.88;;;15.36;86.90
49461;BME280;35355;49.198;-0.368;2022-10-18T02:41:32;101881.72;;;15.32;86.89
49461;BME280;35355;49.198;-0.368;2022-10-18T02:43:57;101884.47;;;15.26;86.98
49461;BME280;35355;49.198;-0.368;2022-10-18T02:46:23;101884.69;;;15.25;87.09
49461;BME280;35355;49.198;-0.368;2022-10-18T02:48:48;101884.97;;;15.23;86.93
49461;BME280;35355;49.198;-0.368;2022-10-18T02:51:14;101889.91;;;15.21;86.63
49461;BME280;35355;49.198;-0.368;2022-10-18T02:53:40;101884.94;;;15.18;86.84
49461;BME280;35355;49.198;-0.368;2022-10-18T02:56:06;101893.47;;;15.17;86.85
49461;BME280;35355;49.198;-0.368;2022-10-18T02:58:31;101886.56;;;15.14;86.95
49461;BME280;35355;49.198;-0.368;2022-10-18T03:00:57;101876.66;;;15.13;86.93
49461;BME280;35355;49.198;-0.368;2022-10-18T03:03:22;101888.75;;;15.12;86.76
49461;BME280;35355;49.198;-0.368;2022-10-18T03:05:49;101890.41;;;15.13;87.07
49461;BME280;35355;49.198;-0.368;2022-10-18T03:08:14;101892.59;;;15.11;86.90
49461;BME280;35355;49.198;-0.368;2022-10-18T03:10:42;101892.59;;;15.11;86.93
49461;BME280;35355;49.198;-0.368;2022-10-18T03:13:08;101894.78;;;15.09;86.53
49461;BME280;35355;49.198;-0.368;2022-10-18T03:15:33;101890.09;;;15.04;86.41
49461;BME280;35355;49.198;-0.368;2022-10-18T03:17:58;101893.88;;;14.98;86.63
49461;BME280;35355;49.198;-0.368;2022-10-18T03:20:24;101888.03;;;14.89;86.51
49461;BME280;35355;49.198;-0.368;2022-10-18T03:22:49;101905.63;;;14.88;86.48
49461;BME280;35355;49.198;-0.368;2022-10-18T03:25:14;101897.06;;;14.85;86.62
49461;BME280;35355;49.198;-0.368;2022-10-18T03:27:40;101903.69;;;14.84;86.82
49461;BME280;35355;49.198;-0.368;2022-10-18T03:30:05;101893.50;;;14.84;87.05
49461;BME280;35355;49.198;-0.368;2022-10-18T03:32:31;101893.22;;;14.86;87.21
49461;BME280;35355;49.198;-0.368;2022-10-18T03:34:56;101887.47;;;14.87;87.10
49461;BME280;35355;49.198;-0.368;2022-10-18T03:37:21;101887.75;;;14.91;87.59
49461;BME280;35355;49.198;-0.368;2022-10-18T03:39:47;101895.78;;;14.93;87.63
49461;BME280;35355;49.198;-0.368;2022-10-18T03:42:12;101890.28;;;14.93;87.39
49461;BME280;35355;49.198;-0.368;2022-10-18T03:44:37;101899.59;;;14.91;87.24
49461;BME280;35355;49.198;-0.368;2022-10-18T03:47:03;101901.78;;;14.89;87.07
49461;BME280;35355;49.198;-0.368;2022-10-18T03:49:28;101906.16;;;14.85;87.22
49461;BME280;35355;49.198;-0.368;2022-10-18T03:51:53;101907.78;;;14.81;87.03
49461;BME280;35355;49.198;-0.368;2022-10-18T03:54:19;101914.34;;;14.80;86.93
49461;BME280;35355;49.198;-0.368;2022-10-18T03:56:44;101915.94;;;14.76;86.99
49461;BME280;35355;49.198;-0.368;2022-10-18T03:59:10;101920.91;;;14.74;87.05
49461;BME280;35355;49.198;-0.368;2022-10-18T04:01:35;101919.22;;;14.73;87.12
49461;BME280;35355;49.198;-0.368;2022-10-18T04:04:00;101926.38;;;14.74;87.19
49461;BME280;35355;49.198;-0.368;2022-10-18T04:06:25;101929.13;;;14.74;87.25
49461;BME280;35355;49.198;-0.368;2022-10-18T04:08:51;101932.72;;;14.74;87.31
49461;BME280;35355;49.198;-0.368;2022-10-18T04:11:16;101932.72;;;14.74;87.04
49461;BME280;35355;49.198;-0.368;2022-10-18T04:13:42;101937.38;;;14.74;87.18
49461;BME280;35355;49.198;-0.368;2022-10-18T04:16:07;101945.06;;;14.72;86.95
49461;BME280;35355;49.198;-0.368;2022-10-18T04:18:32;101947.22;;;14.70;86.89
49461;BME280;35355;49.198;-0.368;2022-10-18T04:20:58;101934.84;;;14.67;87.01
49461;BME280;35355;49.198;-0.368;2022-10-18T04:23:23;101932.94;;;14.68;87.20
49461;BME280;35355;49.198;-0.368;2022-10-18T04:25:48;101923.56;;;14.69;87.19
49461;BME280;35355;49.198;-0.368;2022-10-18T04:28:14;101924.09;;;14.66;87.02
49461;BME280;35355;49.198;-0.368;2022-10-18T04:30:39;101927.13;;;14.64;87.18
49461;BME280;35355;49.198;-0.368;2022-10-18T04:33:04;101930.13;;;14.63;87.03
49461;BME280;35355;49.198;-0.368;2022-10-18T04:35:30;101941.59;;;14.60;86.92
49461;BME280;35355;49.198;-0.368;2022-10-18T04:37:55;101935.81;;;14.56;86.88
49461;BME280;35355;49.198;-0.368;2022-10-18T04:40:20;101931.09;;;14.51;86.72
49461;BME280;35355;49.198;-0.368;2022-10-18T04:42:46;101925.53;;;14.46;86.56
49461;BME280;35355;49.198;-0.368;2022-10-18T04:45:11;101944.47;;;14.43;86.50
49461;BME280;35355;49.198;-0.368;2022-10-18T04:47:37;101930.91;;;14.36;86.34
49461;BME280;35355;49.198;-0.368;2022-10-18T04:50:03;101930.63;;;14.32;86.37
49461;BME280;35355;49.198;-0.368;2022-10-18T04:52:29;101935.22;;;14.27;86.26
49461;BME280;35355;49.198;-0.368;2022-10-18T04:54:54;101948.13;;;14.26;86.43
49461;BME280;35355;49.198;-0.368;2022-10-18T04:57:20;101943.97;;;14.24;86.65
49461;BME280;35355;49.198;-0.368;2022-10-18T04:59:45;101946.72;;;14.24;86.65
49461;BME280;35355;49.198;-0.368;2022-10-18T05:02:10;101957.19;;;14.27;86.78
49461;BME280;35355;49.198;-0.368;2022-10-18T05:04:36;101955.84;;;14.29;86.81
49461;BME280;35355;49.198;-0.368;2022-10-18T05:07:01;101953.41;;;14.33;87.14
49461;BME280;35355;49.198;-0.368;2022-10-18T05:09:27;101965.03;;;14.40;87.12
49461;BME280;35355;49.198;-0.368;2022-10-18T05:11:52;101960.94;;;14.43;87.37
49461;BME280;35355;49.198;-0.368;2022-10-18T05:14:17;101966.47;;;14.48;87.34
49461;BME280;35355;49.198;-0.368;2022-10-18T05:16:43;101971.47;;;14.51;87.56
49461;BME280;35355;49.198;-0.368;2022-10-18T05:19:08;101964.63;;;14.53;87.38
49461;BME280;35355;49.198;-0.368;2022-10-18T05:41:25;101964.75;;;13.92;87.13
49461;BME280;35355;49.198;-0.368;2022-10-18T05:43:50;101962.81;;;13.93;87.57
49461;BME280;35355;49.198;-0.368;2022-10-18T05:46:16;101964.22;;;13.95;88.23
49461;BME280;35355;49.198;-0.368;2022-10-18T05:48:42;101968.44;;;14.03;88.43
49461;BME280;35355;49.198;-0.368;2022-10-18T05:51:08;101965.22;;;14.11;88.79
49461;BME280;35355;49.198;-0.368;2022-10-18T05:53:33;101958.47;;;14.19;88.99
49461;BME280;35355;49.198;-0.368;2022-10-18T05:56:00;101957.44;;;14.25;89.40
49461;BME280;35355;49.198;-0.368;2022-10-18T05:58:25;101957.22;;;14.32;89.38
49461;BME280;35355;49.198;-0.368;2022-10-18T06:00:51;101967.22;;;14.38;89.27
49461;BME280;35355;49.198;-0.368;2022-10-18T06:03:16;101964.78;;;14.42;89.37
49461;BME280;35355;49.198;-0.368;2022-10-18T06:05:42;101965.06;;;14.45;89.25
49461;BME280;35355;49.198;-0.368;2022-10-18T06:08:07;101970.56;;;14.45;89.44
49461;BME280;35355;49.198;-0.368;2022-10-18T06:10:33;101972.81;;;14.48;89.47
49461;BME280;35355;49.198;-0.368;2022-10-18T06:12:58;101971.97;;;14.48;89.47
49461;BME280;35355;49.198;-0.368;2022-10-18T06:15:24;101979.41;;;14.47;89.57
49461;BME280;35355;49.198;-0.368;2022-10-18T06:17:49;101987.38;;;14.49;89.54
49461;BME280;35355;49.198;-0.368;2022-10-18T06:20:15;101982.16;;;14.47;89.78
49461;BME280;35355;49.198;-0.368;2022-10-18T06:22:41;101982.16;;;14.47;89.79
49461;BME280;35355;49.198;-0.368;2022-10-18T06:25:06;101993.69;;;14.49;89.86
49461;BME280;35355;49.198;-0.368;2022-10-18T06:27:33;101992.63;;;14.50;89.90
49461;BME280;35355;49.198;-0.368;2022-10-18T06:29:58;101995.09;;;14.52;89.93
49461;BME280;35355;49.198;-0.368;2022-10-18T06:32:24;101996.78;;;14.53;90.00
49461;BME280;35355;49.198;-0.368;2022-10-18T06:34:49;101999.25;;;14.54;90.05
49461;BME280;35355;49.198;-0.368;2022-10-18T06:37:15;102008.88;;;14.57;90.40
49461;BME280;35355;49.198;-0.368;2022-10-18T06:39:40;102004.25;;;14.57;90.13
49461;BME280;35355;49.198;-0.368;2022-10-18T06:42:05;102008.41;;;14.60;90.40
49461;BME280;35355;49.198;-0.368;2022-10-18T06:44:30;102013.66;;;14.62;90.38
49461;BME280;35355;49.198;-0.368;2022-10-18T06:46:56;102012.56;;;14.63;90.46
49461;BME280;35355;49.198;-0.368;2022-10-18T06:49:21;102017.53;;;14.66;90.53
49461;BME280;35355;49.198;-0.368;2022-10-18T06:51:47;102024.69;;;14.67;90.44
49461;BME280;35355;49.198;-0.368;2022-10-18T06:54:12;102023.88;;;14.66;90.59
49461;BME280;35355;49.198;-0.368;2022-10-18T06:56:38;102023.38;;;14.69;90.37
49461;BME280;35355;49.198;-0.368;2022-10-18T06:59:03;102022.03;;;14.72;90.42
49461;BME280;35355;49.198;-0.368;2022-10-18T07:01:29;102019.28;;;14.72;90.32
49461;BME280;35355;49.198;-0.368;2022-10-18T07:03:55;102021.75;;;14.73;90.58
49461;BME280;35355;49.198;-0.368;2022-10-18T07:06:21;102022.31;;;14.76;90.47
49461;BME280;35355;49.198;-0.368;2022-10-18T07:08:48;102024.81;;;14.77;90.69
49461;BME280;35355;49.198;-0.368;2022-10-18T07:11:20;102015.50;;;14.78;90.53
49461;BME280;35355;49.198;-0.368;2022-10-18T07:13:48;102010.81;;;14.79;90.53
49461;BME280;35355;49.198;-0.368;2022-10-18T07:16:16;102009.47;;;14.81;90.49
49461;BME280;35355;49.198;-0.368;2022-10-18T07:18:43;102013.03;;;14.82;90.84
49461;BME280;35355;49.198;-0.368;2022-10-18T07:21:11;102018.28;;;14.83;90.77
49461;BME280;35355;49.198;-0.368;2022-10-18T07:23:38;102016.13;;;14.85;90.83
49461;BME280;35355;49.198;-0.368;2022-10-18T07:28:42;102018.34;;;14.88;90.77
49461;BME280;35355;49.198;-0.368;2022-10-18T07:31:09;102018.91;;;14.90;90.78
49461;BME280;35355;49.198;-0.368;2022-10-18T07:33:35;102019.72;;;14.91;91.01
49461;BME280;35355;49.198;-0.368;2022-10-18T07:36:03;102025.53;;;14.95;91.08
49461;BME280;35355;49.198;-0.368;2022-10-18T07:38:29;102021.13;;;14.94;90.97
49461;BME280;35355;49.198;-0.368;2022-10-18T07:40:58;102026.09;;;14.97;90.86
49461;BME280;35355;49.198;-0.368;2022-10-18T07:43:24;102018.72;;;14.97;91.02
49461;BME280;35355;49.198;-0.368;2022-10-18T07:45:51;102021.19;;;14.99;90.99
49461;BME280;35355;49.198;-0.368;2022-10-18T07:48:17;102019.25;;;14.99;91.14
49461;BME280;35355;49.198;-0.368;2022-10-18T07:50:42;102037.16;;;15.02;91.17
49461;BME280;35355;49.198;-0.368;2022-10-18T07:53:07;102030.59;;;15.03;90.94
49461;BME280;35355;49.198;-0.368;2022-10-18T07:55:33;102034.44;;;15.07;91.38
49461;BME280;35355;49.198;-0.368;2022-10-18T07:57:59;102030.09;;;15.11;91.39
49461;BME280;35355;49.198;-0.368;2022-10-18T08:00:24;102031.78;;;15.12;91.31
49461;BME280;35355;49.198;-0.368;2022-10-18T08:02:55;102031.25;;;15.15;91.20
49461;BME280;35355;49.198;-0.368;2022-10-18T08:05:20;102031.53;;;15.19;91.35
49461;BME280;35355;49.198;-0.368;2022-10-18T08:07:46;102041.19;;;15.21;91.46
49461;BME280;35355;49.198;-0.368;2022-10-18T08:10:11;102048.91;;;15.24;91.61
49461;BME280;35355;49.198;-0.368;2022-10-18T08:12:36;102038.50;;;15.26;91.49
49461;BME280;35355;49.198;-0.368;2022-10-18T08:15:02;102045.66;;;15.27;91.40
49461;BME280;35355;49.198;-0.368;2022-10-18T08:17:27;102050.09;;;15.34;91.62
49461;BME280;35355;49.198;-0.368;2022-10-18T08:19:53;102048.75;;;15.36;91.70
49461;BME280;35355;49.198;-0.368;2022-10-18T08:22:18;102044.66;;;15.39;91.51
49461;BME280;35355;49.198;-0.368;2022-10-18T08:24:43;102050.44;;;15.42;91.98
49461;BME280;35355;49.198;-0.368;2022-10-18T08:27:09;102055.75;;;15.49;91.73
49461;BME280;35355;49.198;-0.368;2022-10-18T08:29:34;102066.78;;;15.54;91.71
49461;BME280;35355;49.198;-0.368;2022-10-18T08:31:59;102069.84;;;15.58;91.61
49461;BME280;35355;49.198;-0.368;2022-10-18T08:34:25;102058.56;;;15.59;91.73
49461;BME280;35355;49.198;-0.368;2022-10-18T08:36:50;102065.22;;;15.64;91.59
49461;BME280;35355;49.198;-0.368;2022-10-18T08:39:15;102060.00;;;15.67;91.69
49461;BME280;35355;49.198;-0.368;2022-10-18T08:44:48;102063.91;;;15.76;91.52
49461;BME280;35355;49.198;-0.368;2022-10-18T08:47:19;102050.78;;;15.78;91.49
49461;BME280;35355;49.198;-0.368;2022-10-18T08:49:51;102051.91;;;15.83;91.49
49461;BME280;35355;49.198;-0.368;2022-10-18T08:52:52;102058.78;;;15.85;91.55
49461;BME280;35355;49.198;-0.368;2022-10-18T08:56:04;102053.00;;;15.87;91.28
49461;BME280;35355;49.198;-0.368;2022-10-18T08:58:31;102050.00;;;15.88;91.79
49461;BME280;35355;49.198;-0.368;2022-10-18T09:12:53;102057.81;;;16.07;91.44
49461;BME280;35355;49.198;-0.368;2022-10-18T09:15:37;102057.28;;;16.10;91.67
49461;BME280;35355;49.198;-0.368;2022-10-18T09:20:48;102039.69;;;16.16;91.77
49461;BME280;35355;49.198;-0.368;2022-10-18T09:23:23;102040.81;;;16.20;91.59
49461;BME280;35355;49.198;-0.368;2022-10-18T09:25:55;102041.69;;;16.26;91.86
49461;BME280;35355;49.198;-0.368;2022-10-18T09:31:39;102046.97;;;16.38;91.52
49461;BME280;35355;49.198;-0.368;2022-10-18T09:34:49;102043.41;;;16.42;91.26
49461;BME280;35355;49.198;-0.368;2022-10-18T09:37:18;102045.34;;;16.42;91.72
49461;BME280;35355;49.198;-0.368;2022-10-18T09:39:45;102043.66;;;16.46;91.77
49461;BME280;35355;49.198;-0.368;2022-10-18T09:42:24;102046.47;;;16.51;91.51
49461;BME280;35355;49.198;-0.368;2022-10-18T09:44:55;102053.09;;;16.55;91.80
49461;BME280;35355;49.198;-0.368;2022-10-18T09:47:28;102042.94;;;16.61;91.72
49461;BME280;35355;49.198;-0.368;2022-10-18T09:49:59;102045.97;;;16.64;91.62
49461;BME280;35355;49.198;-0.368;2022-10-18T09:52:32;102052.88;;;16.72;91.73
49461;BME280;35355;49.198;-0.368;2022-10-18T09:55:00;102041.00;;;16.72;91.42
49461;BME280;35355;49.198;-0.368;2022-10-18T09:57:31;102043.50;;;16.78;91.56
49461;BME280;35355;49.198;-0.368;2022-10-18T10:00:00;102040.50;;;16.85;91.74
49461;BME280;35355;49.198;-0.368;2022-10-18T10:02:27;102035.56;;;16.87;91.52
49461;BME280;35355;49.198;-0.368;2022-10-18T10:04:53;102038.34;;;16.92;91.44
49461;BME280;35355;49.198;-0.368;2022-10-18T10:07:24;102043.03;;;16.97;91.44
49461;BME280;35355;49.198;-0.368;2022-10-18T10:10:04;102040.53;;;17.00;91.38
49461;BME280;35355;49.198;-0.368;2022-10-18T10:12:33;102040.56;;;17.06;91.31
49461;BME280;35355;49.198;-0.368;2022-10-18T10:15:16;102041.41;;;17.11;91.17
49461;BME280;35355;49.198;-0.368;2022-10-18T10:17:44;102041.13;;;17.13;91.41
49461;BME280;35355;49.198;-0.368;2022-10-18T10:20:17;102039.72;;;17.15;91.35
49461;BME280;35355;49.198;-0.368;2022-10-18T10:22:44;102045.00;;;17.22;91.19
49461;BME280;35355;49.198;-0.368;2022-10-18T10:25:30;102042.78;;;17.24;90.90
49461;BME280;35355;49.198;-0.368;2022-10-18T10:28:02;102039.47;;;17.22;91.10
49461;BME280;35355;49.198;-0.368;2022-10-18T10:30:34;102045.81;;;17.23;90.91
49461;BME280;35355;49.198;-0.368;2022-10-18T10:33:00;102039.47;;;17.22;90.88
49461;BME280;35355;49.198;-0.368;2022-10-18T10:35:38;102046.38;;;17.25;90.83
49461;BME280;35355;49.198;-0.368;2022-10-18T10:38:04;102036.72;;;17.22;90.79
49461;BME280;35355;49.198;-0.368;2022-10-18T10:40:32;102038.38;;;17.23;90.69
49461;BME280;35355;49.198;-0.368;2022-10-18T10:43:02;102030.09;;;17.23;90.68
49461;BME280;35355;49.198;-0.368;2022-10-18T10:45:31;102032.59;;;17.25;90.50
49461;BME280;35355;49.198;-0.368;2022-10-18T10:48:07;102038.91;;;17.25;90.51
49461;BME280;35355;49.198;-0.368;2022-10-18T10:51:02;102030.66;;;17.25;90.42
49461;BME280;35355;49.198;-0.368;2022-10-18T10:53:33;102036.44;;;17.24;90.62
49461;BME280;35355;49.198;-0.368;2022-10-18T10:56:00;102033.41;;;17.25;90.26
49461;BME280;35355;49.198;-0.368;2022-10-18T10:58:34;102024.03;;;17.26;90.28
49461;BME280;35355;49.198;-0.368;2022-10-18T11:03:46;102021.81;;;17.28;90.10
49461;BME280;35355;49.198;-0.368;2022-10-18T11:06:46;102020.16;;;17.32;90.20
49461;BME280;35355;49.198;-0.368;2022-10-18T11:09:23;102024.59;;;17.33;89.92
49461;BME280;35355;49.198;-0.368;2022-10-18T11:11:59;102021.28;;;17.36;89.85
49461;BME280;35355;49.198;-0.368;2022-10-18T11:14:30;102022.66;;;17.39;89.46
49461;BME280;35355;49.198;-0.368;2022-10-18T11:25:14;102019.34;;;17.52;89.45
49461;BME280;35355;49.198;-0.368;2022-10-18T11:27:48;102016.03;;;17.56;89.74
49461;BME280;35355;49.198;-0.368;2022-10-18T11:36:19;102010.78;;;17.54;89.41
49461;BME280;35355;49.198;-0.368;2022-10-18T11:38:55;102011.88;;;17.53;89.18
49461;BME280;35355;49.198;-0.368;2022-10-18T12:05:04;101978.13;;;17.87;88.39
49461;BME280;35355;49.198;-0.368;2022-10-18T12:07:35;101983.09;;;17.90;88.09
49461;BME280;35355;49.198;-0.368;2022-10-18T12:10:03;101986.41;;;17.92;87.80
49461;BME280;35355;49.198;-0.368;2022-10-18T12:12:33;101970.97;;;17.91;87.58
49461;BME280;35355;49.198;-0.368;2022-10-18T12:15:02;101972.06;;;17.90;87.74
49461;BME280;35355;49.198;-0.368;2022-10-18T12:19:57;101967.06;;;17.92;87.50
49461;BME280;35355;49.198;-0.368;2022-10-18T12:22:40;101959.63;;;17.93;87.56
49461;BME280;35355;49.198;-0.368;2022-10-18T12:25:15;101962.09;;;17.94;87.55
49461;BME280;35355;49.198;-0.368;2022-10-18T12:27:53;101958.25;;;17.95;87.43
49461;BME280;35355;49.198;-0.368;2022-10-18T12:30:43;101957.13;;;17.96;87.58
49461;BME280;35355;49.198;-0.368;2022-10-18T12:33:14;101948.81;;;17.96;87.53
49461;BME280;35355;49.198;-0.368;2022-10-18T12:35:55;101946.06;;;17.96;87.41
49461;BME280;35355;49.198;-0.368;2022-10-18T12:38:30;101949.91;;;18.00;87.22
49461;BME280;35355;49.198;-0.368;2022-10-18T12:40:57;101943.28;;;18.01;87.34
49461;BME280;35355;49.198;-0.368;2022-10-18T12:43:25;101943.00;;;18.03;87.20
49461;BME280;35355;49.198;-0.368;2022-10-18T12:45:56;101926.69;;;18.06;87.43
49461;BME280;35355;49.198;-0.368;2022-10-18T12:48:34;101922.53;;;18.09;87.32
49461;BME280;35355;49.198;-0.368;2022-10-18T12:53:38;101930.78;;;18.19;87.07
49461;BME280;35355;49.198;-0.368;2022-10-18T13:09:24;101908.59;;;18.30;86.20
49461;BME280;35355;49.198;-0.368;2022-10-18T13:11:52;101914.38;;;18.33;86.08
49461;BME280;35355;49.198;-0.368;2022-10-18T13:19:52;101901.34;;;18.39;85.83
49461;BME280;35355;49.198;-0.368;2022-10-18T13:22:36;101902.19;;;18.39;85.98
49461;BME280;35355;49.198;-0.368;2022-10-18T13:25:14;101899.97;;;18.41;85.88
49461;BME280;35355;49.198;-0.368;2022-10-18T13:33:21;101901.03;;;18.46;85.59
49461;BME280;35355;49.198;-0.368;2022-10-18T13:38:36;101905.44;;;18.52;85.22
49461;BME280;35355;49.198;-0.368;2022-10-18T13:46:16;101888.84;;;18.52;84.70
49461;BME280;35355;49.198;-0.368;2022-10-18T13:48:46;101884.97;;;18.53;84.60
49461;BME280;35355;49.198;-0.368;2022-10-18T13:51:32;101890.50;;;18.53;84.66
49461;BME280;35355;49.198;-0.368;2022-10-18T14:12:25;101861.59;;;17.80;85.90
49461;BME280;35355;49.198;-0.368;2022-10-18T14:15:02;101869.31;;;17.83;85.36
49461;BME280;35355;49.198;-0.368;2022-10-18T14:17:38;101873.44;;;17.91;85.65
49461;BME280;35355;49.198;-0.368;2022-10-18T14:22:42;101868.41;;;18.03;85.40
49461;BME280;35355;49.198;-0.368;2022-10-18T14:25:25;101858.47;;;18.07;85.54
49461;BME280;35355;49.198;-0.368;2022-10-18T14:28:12;101865.31;;;18.15;85.36
49461;BME280;35355;49.198;-0.368;2022-10-18T14:30:52;101860.59;;;18.20;85.31
49461;BME280;35355;49.198;-0.368;2022-10-18T14:38:50;101857.75;;;18.31;84.93
49461;BME280;35355;49.198;-0.368;2022-10-18T14:43:48;101855.22;;;18.34;84.71
49461;BME280;35355;49.198;-0.368;2022-10-18T14:48:55;101852.69;;;18.38;84.52
49461;BME280;35355;49.198;-0.368;2022-10-18T14:51:21;101854.91;;;18.41;84.30
49461;BME280;35355;49.198;-0.368;2022-10-18T14:53:47;101861.25;;;18.41;84.29
49461;BME280;35355;49.198;-0.368;2022-10-18T14:56:36;101848.81;;;18.44;84.54
49461;BME280;35355;49.198;-0.368;2022-10-18T14:59:04;101855.97;;;18.45;84.32
49461;BME280;35355;49.198;-0.368;2022-10-18T15:01:34;101854.56;;;18.48;84.39
49461;BME280;35355;49.198;-0.368;2022-10-18T15:04:07;101839.66;;;18.49;84.46
49461;BME280;35355;49.198;-0.368;2022-10-18T15:06:33;101835.75;;;18.50;84.30
49461;BME280;35355;49.198;-0.368;2022-10-18T15:09:01;101844.84;;;18.55;84.25
49461;BME280;35355;49.198;-0.368;2022-10-18T15:11:29;101840.66;;;18.58;83.97
49461;BME280;35355;49.198;-0.368;2022-10-18T15:14:00;101837.63;;;18.59;84.29
49461;BME280;35355;49.198;-0.368;2022-10-18T15:16:33;101835.66;;;18.60;84.04
49461;BME280;35355;49.198;-0.368;2022-10-18T15:19:19;101839.00;;;18.62;83.94
49461;BME280;35355;49.198;-0.368;2022-10-18T15:21:54;101838.16;;;18.62;83.93
49461;BME280;35355;49.198;-0.368;2022-10-18T15:26:58;101834.56;;;18.61;83.92
49461;BME280;35355;49.198;-0.368;2022-10-18T15:29:25;101834.84;;;18.59;83.67
49461;BME280;35355;49.198;-0.368;2022-10-18T15:31:52;101831.28;;;18.59;83.60
49461;BME280;35355;49.198;-0.368;2022-10-18T15:34:22;101827.66;;;18.58;83.69
49461;BME280;35355;49.198;-0.368;2022-10-18T15:36:51;101829.63;;;18.58;83.58
49461;BME280;35355;49.198;-0.368;2022-10-18T15:39:25;101825.19;;;18.57;83.64
49461;BME280;35355;49.198;-0.368;2022-10-18T15:41:56;101825.75;;;18.59;83.64
49461;BME280;35355;49.198;-0.368;2022-10-18T15:44:33;101837.91;;;18.58;83.55
49461;BME280;35355;49.198;-0.368;2022-10-18T15:54:34;101831.59;;;18.52;83.09